createdAt,value
2019-03-31T00:00:51.699Z,9.32
2019-03-31T00:01:51.672Z,9.24
2019-03-31T00:02:51.644Z,9.31
2019-03-31T00:03:51.617Z,9.15
2019-03-31T00:04:51.587Z,9.05
2019-03-31T00:05:51.561Z,8.99
2019-03-31T00:06:51.532Z,8.96
2019-03-31T00:07:51.509Z,8.79
2019-03-31T00:08:51.477Z,8.73
2019-03-31T00:09:51.449Z,8.58
2019-03-31T00:10:51.419Z,8.44
2019-03-31T00:11:51.392Z,8.36
2019-03-31T00:12:51.363Z,8.16
2019-03-31T00:13:51.335Z,8.12
2019-03-31T00:14:51.307Z,8.07
2019-03-31T00:15:51.280Z,7.97
2019-03-31T00:16:52.599Z,7.89
2019-03-31T00:17:51.223Z,7.85
2019-03-31T00:18:51.195Z,7.75
2019-03-31T00:19:51.167Z,7.77
2019-03-31T00:20:51.140Z,7.69
2019-03-31T00:21:51.110Z,7.64
2019-03-31T00:22:51.081Z,7.50
2019-03-31T00:23:51.058Z,7.52
2019-03-31T00:24:53.443Z,7.55
2019-03-31T00:25:50.999Z,7.52
2019-03-31T00:26:50.968Z,7.55
2019-03-31T00:27:50.939Z,7.43
2019-03-31T00:28:50.912Z,7.46
2019-03-31T00:29:50.887Z,7.52
2019-03-31T00:30:50.854Z,7.63
2019-03-31T00:31:50.826Z,7.61
2019-03-31T00:32:50.803Z,7.72
2019-03-31T00:33:50.769Z,7.69
2019-03-31T00:34:50.740Z,7.67
2019-03-31T00:35:50.711Z,7.67
2019-03-31T00:36:50.682Z,7.67
2019-03-31T00:37:50.654Z,7.64
2019-03-31T00:38:50.625Z,7.57
2019-03-31T00:39:50.600Z,7.58
2019-03-31T00:40:50.569Z,7.52
2019-03-31T00:41:50.541Z,7.46
2019-03-31T00:42:50.511Z,7.39
2019-03-31T00:43:50.487Z,7.32
2019-03-31T00:44:50.453Z,7.37
2019-03-31T00:45:50.424Z,7.34
2019-03-31T00:46:50.396Z,7.34
2019-03-31T00:47:50.366Z,7.35
2019-03-31T00:48:50.337Z,7.34
2019-03-31T00:49:50.317Z,7.43
2019-03-31T00:50:50.281Z,7.40
2019-03-31T00:51:50.252Z,7.43
2019-03-31T00:52:50.222Z,7.45
2019-03-31T00:53:50.195Z,7.45
2019-03-31T00:54:50.165Z,7.46
2019-03-31T00:55:50.136Z,7.37
2019-03-31T00:56:50.107Z,7.37
2019-03-31T00:57:50.078Z,7.35
2019-03-31T00:58:50.049Z,7.39
2019-03-31T00:59:50.020Z,7.40
2019-03-31T01:00:49.990Z,7.37
2019-03-31T01:01:49.965Z,7.32
2019-03-31T01:02:49.936Z,7.32
2019-03-31T01:03:49.905Z,7.42
2019-03-31T01:04:49.875Z,7.45
2019-03-31T01:05:49.846Z,7.50
2019-03-31T01:06:49.821Z,7.53
2019-03-31T01:07:49.790Z,7.52
2019-03-31T01:08:49.759Z,7.48
2019-03-31T01:09:49.730Z,7.46
2019-03-31T01:10:49.704Z,7.40
2019-03-31T01:11:49.673Z,7.37
2019-03-31T01:12:49.644Z,7.27
2019-03-31T01:13:49.614Z,7.15
2019-03-31T01:14:49.585Z,7.21
2019-03-31T01:15:49.557Z,7.12
2019-03-31T01:16:49.526Z,7.09
2019-03-31T01:17:49.498Z,7.16
2019-03-31T01:18:49.470Z,7.24
2019-03-31T01:19:49.452Z,7.20
2019-03-31T01:20:49.411Z,7.23
2019-03-31T01:21:49.381Z,7.24
2019-03-31T01:22:49.352Z,7.35
2019-03-31T01:23:49.328Z,7.40
2019-03-31T01:24:49.293Z,7.45
2019-03-31T01:25:49.266Z,7.49
2019-03-31T01:26:49.236Z,7.63
2019-03-31T01:27:49.206Z,7.75
2019-03-31T01:28:49.180Z,7.69
2019-03-31T01:29:49.148Z,7.69
2019-03-31T01:30:49.117Z,7.63
2019-03-31T01:31:50.672Z,7.60
2019-03-31T01:32:49.060Z,7.64
2019-03-31T01:33:49.030Z,7.68
2019-03-31T01:34:49.002Z,7.67
2019-03-31T01:35:48.972Z,7.71
2019-03-31T01:36:48.942Z,7.64
2019-03-31T01:37:48.920Z,7.64
2019-03-31T01:38:48.885Z,7.63
2019-03-31T01:39:48.855Z,7.57
2019-03-31T01:40:48.824Z,7.48
2019-03-31T01:41:48.795Z,7.34
2019-03-31T01:42:48.765Z,7.39
2019-03-31T01:43:48.739Z,7.45
2019-03-31T01:44:48.707Z,7.46
2019-03-31T01:45:48.678Z,7.40
2019-03-31T01:46:48.649Z,7.52
2019-03-31T01:47:48.620Z,7.45
2019-03-31T01:48:48.591Z,7.48
2019-03-31T01:49:48.559Z,7.52
2019-03-31T01:50:48.531Z,7.55
2019-03-31T01:51:48.501Z,7.52
2019-03-31T01:52:48.473Z,7.55
2019-03-31T01:53:48.443Z,7.55
2019-03-31T01:54:48.421Z,7.46
2019-03-31T01:55:48.385Z,7.43
2019-03-31T01:56:48.354Z,7.43
2019-03-31T01:57:48.326Z,7.39
2019-03-31T01:58:48.295Z,7.30
2019-03-31T01:59:48.267Z,7.23
2019-03-31T02:00:48.239Z,7.17
2019-03-31T02:01:48.208Z,7.17
2019-03-31T02:02:48.178Z,7.10
2019-03-31T02:03:48.152Z,7.20
2019-03-31T02:04:48.118Z,7.24
2019-03-31T02:05:48.092Z,7.25
2019-03-31T02:06:48.064Z,7.13
2019-03-31T02:07:48.033Z,7.21
2019-03-31T02:08:48.003Z,7.12
2019-03-31T02:09:47.971Z,7.21
2019-03-31T02:10:47.943Z,7.17
2019-03-31T02:11:47.912Z,7.17
2019-03-31T02:12:47.883Z,7.13
2019-03-31T02:13:47.854Z,7.13
2019-03-31T02:14:47.828Z,6.98
2019-03-31T02:15:47.796Z,7.07
2019-03-31T02:16:47.767Z,7.06
2019-03-31T02:17:47.740Z,7.10
2019-03-31T02:18:47.708Z,6.92
2019-03-31T02:19:47.681Z,6.91
2019-03-31T02:20:47.647Z,7.02
2019-03-31T02:21:47.617Z,6.92
2019-03-31T02:22:47.593Z,6.97
2019-03-31T02:23:47.560Z,6.95
2019-03-31T02:24:47.527Z,6.98
2019-03-31T02:25:47.500Z,6.95
2019-03-31T02:26:47.470Z,7.02
2019-03-31T02:27:47.440Z,6.95
2019-03-31T02:28:47.411Z,6.92
2019-03-31T02:29:47.384Z,6.98
2019-03-31T02:30:47.354Z,6.85
2019-03-31T02:31:47.320Z,6.98
2019-03-31T02:32:47.297Z,7.03
2019-03-31T02:33:47.265Z,7.03
2019-03-31T02:34:47.234Z,7.03
2019-03-31T02:35:47.202Z,7.12
2019-03-31T02:36:47.173Z,6.97
2019-03-31T02:37:47.143Z,7.02
2019-03-31T02:38:47.114Z,7.07
2019-03-31T02:39:47.084Z,7.16
2019-03-31T02:40:47.057Z,7.10
2019-03-31T02:41:47.024Z,7.17
2019-03-31T02:42:46.998Z,7.20
2019-03-31T02:43:46.964Z,7.21
2019-03-31T02:44:46.935Z,7.06
2019-03-31T02:45:46.903Z,7.09
2019-03-31T02:46:46.875Z,7.09
2019-03-31T02:47:46.853Z,7.07
2019-03-31T02:48:46.812Z,7.03
2019-03-31T02:49:46.784Z,7.05
2019-03-31T02:50:46.756Z,6.95
2019-03-31T02:51:46.723Z,7.05
2019-03-31T02:52:46.696Z,6.98
2019-03-31T02:53:46.664Z,7.03
2019-03-31T02:54:46.666Z,7.12
2019-03-31T02:55:46.609Z,7.16
2019-03-31T02:56:46.575Z,7.10
2019-03-31T02:57:46.548Z,7.17
2019-03-31T02:58:46.516Z,7.20
2019-03-31T02:59:46.485Z,7.21
2019-03-31T03:00:46.454Z,7.25
2019-03-31T03:01:46.427Z,7.28
2019-03-31T03:02:46.403Z,7.27
2019-03-31T03:03:46.369Z,7.37
2019-03-31T03:04:46.348Z,7.37
2019-03-31T03:05:46.304Z,7.37
2019-03-31T03:06:46.276Z,7.30
2019-03-31T03:07:46.274Z,7.35
2019-03-31T03:08:46.219Z,7.30
2019-03-31T03:09:46.185Z,7.34
2019-03-31T03:10:46.158Z,7.35
2019-03-31T03:11:46.128Z,7.34
2019-03-31T03:12:46.096Z,7.32
2019-03-31T03:13:46.067Z,7.30
2019-03-31T03:14:46.037Z,7.35
2019-03-31T03:15:46.008Z,7.30
2019-03-31T03:16:45.979Z,7.28
2019-03-31T03:17:45.952Z,7.24
2019-03-31T03:18:45.921Z,7.30
2019-03-31T03:19:45.896Z,7.27
2019-03-31T03:20:45.862Z,7.24
2019-03-31T03:21:45.834Z,7.23
2019-03-31T03:22:45.797Z,7.23
2019-03-31T03:23:45.769Z,7.24
2019-03-31T03:24:45.741Z,7.24
2019-03-31T03:25:55.682Z,7.23
2019-03-31T03:26:45.679Z,7.24
2019-03-31T03:27:45.650Z,7.20
2019-03-31T03:28:45.633Z,7.23
2019-03-31T03:29:45.595Z,7.23
2019-03-31T03:30:45.922Z,7.24
2019-03-31T03:31:45.605Z,7.24
2019-03-31T03:33:12.520Z,7.28
2019-03-31T03:33:45.476Z,7.31
2019-03-31T03:34:45.441Z,7.25
2019-03-31T03:35:45.429Z,7.23
2019-03-31T03:36:45.384Z,7.27
2019-03-31T03:37:45.353Z,7.28
2019-03-31T03:38:45.323Z,7.25
2019-03-31T03:39:45.302Z,7.39
2019-03-31T03:40:45.263Z,7.28
2019-03-31T03:41:45.233Z,7.27
2019-03-31T03:42:45.204Z,7.25
2019-03-31T03:43:55.146Z,7.27
2019-03-31T03:44:45.350Z,7.23
2019-03-31T03:45:45.114Z,7.21
2019-03-31T03:46:45.085Z,7.21
2019-03-31T03:47:45.056Z,7.24
2019-03-31T03:48:45.026Z,7.24
2019-03-31T03:49:44.995Z,7.25
2019-03-31T03:50:44.966Z,7.24
2019-03-31T03:51:44.935Z,7.21
2019-03-31T03:52:44.906Z,7.16
2019-03-31T03:53:44.877Z,7.27
2019-03-31T03:54:44.852Z,7.27
2019-03-31T03:55:44.818Z,7.23
2019-03-31T03:56:44.789Z,7.24
2019-03-31T03:57:44.760Z,7.23
2019-03-31T03:58:44.731Z,7.20
2019-03-31T03:59:44.699Z,7.25
2019-03-31T04:00:44.668Z,7.23
2019-03-31T04:01:44.638Z,7.21
2019-03-31T04:02:44.610Z,7.21
2019-03-31T04:03:44.581Z,7.25
2019-03-31T04:04:44.548Z,7.20
2019-03-31T04:05:44.533Z,7.24
2019-03-31T04:06:44.492Z,7.24
2019-03-31T04:07:44.463Z,7.27
2019-03-31T04:08:44.431Z,7.24
2019-03-31T04:09:44.400Z,7.20
2019-03-31T04:10:44.414Z,7.12
2019-03-31T04:11:44.343Z,7.24
2019-03-31T04:12:44.315Z,7.15
2019-03-31T04:13:44.292Z,7.07
2019-03-31T04:14:44.253Z,7.16
2019-03-31T04:15:44.231Z,7.05
2019-03-31T04:16:44.196Z,7.15
2019-03-31T04:17:44.173Z,7.05
2019-03-31T04:18:44.134Z,6.92
2019-03-31T04:19:44.107Z,6.94
2019-03-31T04:20:44.076Z,6.95
2019-03-31T04:21:44.050Z,6.98
2019-03-31T04:22:44.026Z,6.91
2019-03-31T04:23:43.990Z,6.84
2019-03-31T04:24:43.960Z,6.79
2019-03-31T04:25:43.929Z,6.77
2019-03-31T04:26:43.914Z,6.73
2019-03-31T04:27:43.869Z,6.61
2019-03-31T04:28:43.858Z,6.61
2019-03-31T04:29:43.813Z,6.49
2019-03-31T04:30:43.786Z,6.46
2019-03-31T04:31:43.751Z,6.38
2019-03-31T04:32:43.730Z,6.43
2019-03-31T04:33:51.257Z,6.36
2019-03-31T04:34:43.689Z,6.22
2019-03-31T04:35:43.633Z,6.11
2019-03-31T04:36:43.604Z,6.15
2019-03-31T04:37:43.571Z,6.09
2019-03-31T04:38:43.545Z,5.97
2019-03-31T04:39:43.513Z,5.89
2019-03-31T04:40:43.507Z,5.75
2019-03-31T04:41:43.453Z,5.83
2019-03-31T04:42:43.430Z,5.71
2019-03-31T04:43:43.395Z,5.61
2019-03-31T04:44:43.366Z,5.57
2019-03-31T04:45:43.336Z,5.53
2019-03-31T04:46:43.305Z,5.39
2019-03-31T04:47:43.273Z,5.42
2019-03-31T04:48:43.245Z,5.43
2019-03-31T04:49:43.214Z,5.39
2019-03-31T04:50:43.183Z,5.28
2019-03-31T04:51:43.154Z,5.25
2019-03-31T04:52:43.123Z,5.20
2019-03-31T04:53:43.097Z,5.20
2019-03-31T04:54:43.065Z,5.13
2019-03-31T04:55:43.034Z,5.13
2019-03-31T04:56:43.002Z,5.03
2019-03-31T04:57:42.986Z,4.97
2019-03-31T04:58:42.944Z,4.89
2019-03-31T04:59:42.912Z,4.78
2019-03-31T05:00:42.882Z,4.85
2019-03-31T05:01:42.853Z,4.82
2019-03-31T05:02:42.823Z,4.88
2019-03-31T05:03:42.793Z,4.91
2019-03-31T05:04:42.763Z,4.84
2019-03-31T05:05:42.734Z,4.86
2019-03-31T05:06:42.702Z,4.88
2019-03-31T05:07:42.671Z,4.84
2019-03-31T05:08:42.639Z,4.78
2019-03-31T05:09:42.609Z,4.73
2019-03-31T05:10:42.582Z,4.75
2019-03-31T05:11:42.551Z,4.63
2019-03-31T05:12:42.519Z,4.72
2019-03-31T05:13:42.490Z,4.70
2019-03-31T05:14:42.460Z,4.69
2019-03-31T05:15:42.430Z,4.63
2019-03-31T05:16:42.399Z,4.82
2019-03-31T05:17:42.371Z,4.89
2019-03-31T05:18:42.348Z,4.86
2019-03-31T05:19:42.308Z,4.86
2019-03-31T05:20:42.277Z,4.89
2019-03-31T05:21:42.248Z,4.89
2019-03-31T05:22:42.219Z,5.07
2019-03-31T05:23:42.190Z,5.02
2019-03-31T05:24:42.157Z,5.04
2019-03-31T05:25:42.125Z,5.09
2019-03-31T05:26:42.097Z,5.09
2019-03-31T05:27:42.068Z,5.03
2019-03-31T05:28:44.188Z,5.12
2019-03-31T05:29:42.005Z,5.20
2019-03-31T05:30:41.975Z,5.21
2019-03-31T05:31:41.945Z,5.25
2019-03-31T05:32:41.915Z,5.22
2019-03-31T05:33:41.887Z,5.27
2019-03-31T05:34:41.856Z,5.39
2019-03-31T05:35:41.824Z,5.42
2019-03-31T05:36:41.793Z,5.43
2019-03-31T05:37:50.818Z,5.74
2019-03-31T05:38:41.734Z,6.08
2019-03-31T05:39:41.705Z,6.61
2019-03-31T05:40:41.672Z,6.89
2019-03-31T05:41:41.644Z,7.20
2019-03-31T05:42:41.613Z,6.95
2019-03-31T05:43:41.585Z,6.91
2019-03-31T05:44:41.555Z,6.88
2019-03-31T05:45:41.526Z,6.77
2019-03-31T05:46:41.495Z,6.58
2019-03-31T05:47:41.466Z,6.62
2019-03-31T05:48:41.436Z,6.61
2019-03-31T05:49:41.408Z,6.61
2019-03-31T05:50:41.381Z,6.64
2019-03-31T05:51:41.347Z,6.73
2019-03-31T05:52:41.320Z,6.76
2019-03-31T05:53:41.289Z,6.71
2019-03-31T05:54:41.261Z,6.76
2019-03-31T05:55:41.231Z,6.77
2019-03-31T05:56:41.202Z,6.81
2019-03-31T05:57:41.174Z,6.84
2019-03-31T05:58:41.144Z,6.88
2019-03-31T05:59:41.115Z,6.85
2019-03-31T06:00:41.088Z,6.84
2019-03-31T06:01:41.057Z,6.80
2019-03-31T06:02:41.030Z,6.89
2019-03-31T06:03:41.001Z,6.91
2019-03-31T06:04:40.974Z,6.95
2019-03-31T06:05:40.943Z,6.97
2019-03-31T06:06:40.913Z,6.92
2019-03-31T06:07:40.885Z,6.98
2019-03-31T06:08:40.855Z,6.95
2019-03-31T06:09:40.827Z,6.95
2019-03-31T06:10:40.798Z,6.95
2019-03-31T06:11:40.769Z,6.98
2019-03-31T06:12:40.739Z,7.02
2019-03-31T06:13:40.715Z,7.02
2019-03-31T06:14:40.683Z,7.09
2019-03-31T06:15:40.654Z,7.17
2019-03-31T06:16:40.625Z,7.17
2019-03-31T06:17:40.596Z,7.09
2019-03-31T06:18:40.572Z,7.25
2019-03-31T06:19:40.539Z,7.21
2019-03-31T06:20:40.509Z,7.17
2019-03-31T06:21:40.481Z,7.28
2019-03-31T06:22:40.454Z,7.28
2019-03-31T06:23:40.427Z,7.32
2019-03-31T06:24:40.394Z,7.37
2019-03-31T06:25:40.370Z,7.46
2019-03-31T06:26:40.338Z,7.43
2019-03-31T06:27:40.311Z,7.61
2019-03-31T06:28:40.279Z,7.53
2019-03-31T06:29:40.250Z,7.64
2019-03-31T06:30:40.223Z,7.60
2019-03-31T06:31:40.193Z,7.68
2019-03-31T06:32:40.164Z,7.64
2019-03-31T06:33:40.139Z,7.74
2019-03-31T06:34:47.208Z,7.80
2019-03-31T06:35:40.079Z,7.82
2019-03-31T06:36:40.051Z,7.83
2019-03-31T06:37:40.022Z,7.82
2019-03-31T06:38:39.993Z,7.80
2019-03-31T06:39:39.964Z,7.90
2019-03-31T06:40:39.937Z,7.87
2019-03-31T06:41:39.907Z,7.98
2019-03-31T06:42:39.879Z,8.02
2019-03-31T06:43:39.850Z,8.11
2019-03-31T06:44:39.821Z,8.12
2019-03-31T06:45:39.793Z,8.12
2019-03-31T06:46:39.763Z,8.23
2019-03-31T06:47:39.736Z,8.25
2019-03-31T06:48:39.707Z,8.30
2019-03-31T06:49:39.678Z,8.34
2019-03-31T06:50:39.652Z,8.30
2019-03-31T06:51:39.624Z,8.34
2019-03-31T06:52:39.595Z,8.38
2019-03-31T06:53:39.567Z,8.36
2019-03-31T06:54:39.539Z,8.41
2019-03-31T06:55:39.512Z,8.50
2019-03-31T06:56:39.481Z,8.52
2019-03-31T06:57:39.454Z,8.56
2019-03-31T06:58:39.428Z,8.59
2019-03-31T06:59:39.399Z,8.66
2019-03-31T07:00:39.377Z,8.68
2019-03-31T07:01:39.343Z,8.62
2019-03-31T07:02:39.316Z,8.62
2019-03-31T07:03:39.309Z,8.76
2019-03-31T07:04:39.258Z,8.80
2019-03-31T07:05:39.234Z,8.86
2019-03-31T07:06:39.204Z,8.84
2019-03-31T07:07:39.177Z,8.96
2019-03-31T07:08:39.149Z,9.05
2019-03-31T07:09:39.121Z,9.08
2019-03-31T07:10:39.096Z,8.92
2019-03-31T07:11:39.065Z,8.89
2019-03-31T07:12:39.037Z,9.10
2019-03-31T07:13:39.010Z,9.05
2019-03-31T07:14:38.987Z,9.15
2019-03-31T07:15:38.954Z,9.26
2019-03-31T07:16:38.924Z,9.17
2019-03-31T07:17:38.902Z,9.31
2019-03-31T07:18:38.872Z,9.28
2019-03-31T07:19:38.844Z,9.20
2019-03-31T07:20:38.824Z,9.21
2019-03-31T07:21:38.788Z,9.20
2019-03-31T07:22:38.763Z,9.29
2019-03-31T07:23:38.734Z,9.36
2019-03-31T07:24:38.708Z,9.33
2019-03-31T07:25:38.681Z,9.31
2019-03-31T07:26:38.650Z,9.43
2019-03-31T07:27:38.627Z,9.50
2019-03-31T07:28:38.597Z,9.43
2019-03-31T07:29:38.568Z,9.46
2019-03-31T07:30:38.542Z,9.31
2019-03-31T07:31:38.515Z,9.47
2019-03-31T07:32:38.487Z,9.54
2019-03-31T07:33:38.460Z,9.60
2019-03-31T07:34:38.433Z,9.71
2019-03-31T07:35:39.117Z,9.81
2019-03-31T07:36:38.381Z,10.04
2019-03-31T07:37:47.226Z,10.05
2019-03-31T07:38:39.589Z,10.08
2019-03-31T07:39:38.296Z,10.20
2019-03-31T07:40:38.276Z,10.25
2019-03-31T07:41:38.242Z,10.25
2019-03-31T07:42:38.217Z,10.26
2019-03-31T07:43:38.191Z,10.27
2019-03-31T07:44:38.166Z,10.40
2019-03-31T07:45:38.140Z,10.42
2019-03-31T07:46:38.109Z,10.36
2019-03-31T07:47:38.083Z,10.36
2019-03-31T07:48:38.053Z,10.36
2019-03-31T07:49:38.025Z,10.26
2019-03-31T07:50:38.001Z,10.14
2019-03-31T07:51:37.975Z,10.15
2019-03-31T07:52:37.951Z,10.08
2019-03-31T07:53:37.921Z,10.04
2019-03-31T07:54:37.892Z,10.05
2019-03-31T07:55:37.867Z,9.99
2019-03-31T07:56:37.840Z,9.90
2019-03-31T07:57:37.830Z,9.84
2019-03-31T07:58:37.845Z,9.86
2019-03-31T07:59:37.796Z,9.91
2019-03-31T08:00:37.731Z,10.04
2019-03-31T08:01:37.770Z,10.09
2019-03-31T08:02:37.678Z,10.15
2019-03-31T08:03:37.651Z,10.29
2019-03-31T08:04:37.624Z,10.29
2019-03-31T08:05:37.828Z,10.41
2019-03-31T08:06:37.569Z,10.44
2019-03-31T08:07:37.544Z,10.44
2019-03-31T08:08:37.516Z,10.48
2019-03-31T08:09:37.490Z,10.45
2019-03-31T08:10:37.465Z,10.73
2019-03-31T08:11:37.435Z,11.10
2019-03-31T08:12:37.409Z,12.60
2019-03-31T08:13:37.382Z,13.39
2019-03-31T08:14:37.357Z,13.92
2019-03-31T08:15:37.331Z,14.58
2019-03-31T08:16:37.303Z,15.36
2019-03-31T08:17:37.278Z,15.20
2019-03-31T08:18:37.254Z,15.11
2019-03-31T08:19:37.228Z,15.64
2019-03-31T08:20:37.207Z,14.95
2019-03-31T08:21:37.185Z,14.37
2019-03-31T08:22:37.155Z,14.00
2019-03-31T08:23:37.131Z,13.59
2019-03-31T08:24:37.106Z,13.22
2019-03-31T08:25:37.082Z,12.60
2019-03-31T08:26:37.057Z,11.86
2019-03-31T08:27:37.035Z,11.70
2019-03-31T08:28:37.008Z,11.60
2019-03-31T08:29:36.982Z,11.52
2019-03-31T08:30:36.959Z,12.82
2019-03-31T08:31:36.933Z,13.49
2019-03-31T08:32:36.909Z,13.59
2019-03-31T08:33:36.882Z,14.32
2019-03-31T08:34:36.859Z,14.86
2019-03-31T08:35:47.323Z,15.47
2019-03-31T08:36:36.818Z,16.14
2019-03-31T08:37:36.786Z,17.01
2019-03-31T08:38:36.762Z,17.79
2019-03-31T08:39:36.738Z,17.84
2019-03-31T08:40:36.714Z,18.05
2019-03-31T08:41:36.695Z,17.82
2019-03-31T08:42:36.668Z,17.77
2019-03-31T08:43:36.686Z,16.82
2019-03-31T08:44:36.623Z,15.71
2019-03-31T08:45:36.600Z,14.86
2019-03-31T08:46:36.579Z,13.67
2019-03-31T08:47:36.555Z,14.03
2019-03-31T08:48:36.531Z,14.92
2019-03-31T08:49:36.511Z,15.62
2019-03-31T08:50:36.486Z,16.34
2019-03-31T08:51:36.463Z,16.94
2019-03-31T08:52:36.442Z,17.56
2019-03-31T08:53:36.423Z,18.50
2019-03-31T08:54:36.396Z,18.72
2019-03-31T08:55:36.372Z,19.14
2019-03-31T08:56:36.353Z,19.25
2019-03-31T08:57:36.332Z,18.80
2019-03-31T08:58:36.309Z,18.66
2019-03-31T08:59:36.285Z,17.84
2019-03-31T09:00:36.262Z,17.51
2019-03-31T09:01:36.241Z,17.66
2019-03-31T09:02:36.269Z,17.56
2019-03-31T09:03:36.198Z,16.52
2019-03-31T09:04:36.175Z,14.94
2019-03-31T09:05:36.153Z,14.02
2019-03-31T09:06:36.134Z,13.54
2019-03-31T09:07:36.110Z,14.04
2019-03-31T09:08:36.086Z,13.51
2019-03-31T09:09:36.063Z,14.58
2019-03-31T09:10:36.041Z,15.38
2019-03-31T09:11:36.019Z,15.92
2019-03-31T09:12:35.994Z,15.94
2019-03-31T09:13:35.972Z,16.38
2019-03-31T09:14:35.949Z,17.00
2019-03-31T09:15:35.926Z,17.25
2019-03-31T09:16:35.903Z,17.82
2019-03-31T09:17:35.881Z,18.12
2019-03-31T09:18:35.858Z,18.32
2019-03-31T09:19:35.836Z,18.42
2019-03-31T09:20:35.812Z,18.45
2019-03-31T09:21:35.791Z,18.52
2019-03-31T09:22:35.772Z,19.02
2019-03-31T09:23:35.748Z,18.99
2019-03-31T09:24:35.725Z,18.91
2019-03-31T09:25:35.702Z,18.50
2019-03-31T09:26:35.685Z,18.58
2019-03-31T09:27:35.660Z,18.87
2019-03-31T09:28:35.638Z,18.45
2019-03-31T09:29:35.619Z,18.00
2019-03-31T09:30:35.596Z,17.48
2019-03-31T09:31:35.582Z,17.58
2019-03-31T09:32:35.555Z,17.40
2019-03-31T09:33:35.533Z,16.79
2019-03-31T09:34:35.509Z,16.96
2019-03-31T09:35:35.488Z,17.46
2019-03-31T09:36:35.467Z,17.62
2019-03-31T09:37:35.445Z,17.97
2019-03-31T09:38:35.430Z,17.12
2019-03-31T09:39:35.401Z,17.30
2019-03-31T09:40:35.380Z,17.37
2019-03-31T09:41:35.359Z,17.84
2019-03-31T09:42:35.337Z,18.14
2019-03-31T09:43:35.315Z,18.03
2019-03-31T09:44:35.294Z,18.37
2019-03-31T09:45:35.271Z,17.90
2019-03-31T09:46:35.251Z,18.36
2019-03-31T09:47:35.232Z,18.72
2019-03-31T09:48:35.207Z,18.69
2019-03-31T09:49:35.188Z,17.33
2019-03-31T09:50:35.167Z,17.00
2019-03-31T09:51:35.144Z,17.21
2019-03-31T09:52:35.122Z,16.98
2019-03-31T09:53:35.102Z,17.31
2019-03-31T09:54:35.080Z,17.95
2019-03-31T09:55:35.057Z,18.80
2019-03-31T09:56:35.035Z,19.08
2019-03-31T09:57:35.014Z,19.13
2019-03-31T09:58:34.993Z,19.40
2019-03-31T09:59:34.972Z,19.63
2019-03-31T10:00:34.950Z,19.56
2019-03-31T10:01:34.928Z,19.55
2019-03-31T10:02:34.908Z,18.26
2019-03-31T10:03:34.886Z,17.07
2019-03-31T10:04:34.864Z,17.31
2019-03-31T10:05:34.842Z,17.00
2019-03-31T10:06:34.821Z,16.78
2019-03-31T10:07:34.800Z,16.75
2019-03-31T10:08:34.780Z,17.26
2019-03-31T10:09:34.757Z,16.88
2019-03-31T10:10:34.735Z,15.75
2019-03-31T10:11:34.718Z,16.82
2019-03-31T10:12:34.691Z,17.75
2019-03-31T10:13:35.069Z,18.54
2019-03-31T10:14:34.647Z,18.82
2019-03-31T10:15:34.626Z,18.98
2019-03-31T10:16:34.605Z,19.56
2019-03-31T10:17:34.582Z,19.63
2019-03-31T10:18:34.560Z,19.59
2019-03-31T10:19:34.540Z,18.90
2019-03-31T10:20:34.526Z,18.92
2019-03-31T10:21:34.496Z,18.45
2019-03-31T10:22:34.474Z,18.52
2019-03-31T10:23:34.451Z,17.49
2019-03-31T10:24:34.431Z,16.91
2019-03-31T10:25:34.410Z,16.00
2019-03-31T10:26:34.390Z,16.07
2019-03-31T10:27:34.368Z,17.34
2019-03-31T10:28:34.345Z,18.12
2019-03-31T10:29:34.324Z,18.92
2019-03-31T10:30:34.302Z,19.50
2019-03-31T10:31:34.283Z,19.63
2019-03-31T10:32:34.260Z,20.03
2019-03-31T10:33:34.238Z,20.26
2019-03-31T10:34:34.217Z,20.48
2019-03-31T10:35:34.195Z,19.63
2019-03-31T10:36:44.532Z,19.28
2019-03-31T10:37:34.155Z,18.12
2019-03-31T10:38:34.133Z,17.52
2019-03-31T10:39:34.114Z,17.87
2019-03-31T10:40:34.091Z,17.30
2019-03-31T10:41:34.071Z,16.66
2019-03-31T10:42:34.050Z,16.98
2019-03-31T10:43:34.027Z,16.76
2019-03-31T10:44:34.007Z,17.36
2019-03-31T10:45:33.992Z,17.26
2019-03-31T10:46:33.965Z,16.61
2019-03-31T10:47:33.942Z,16.60
2019-03-31T10:48:33.920Z,16.75
2019-03-31T10:49:33.897Z,16.64
2019-03-31T10:50:33.876Z,16.34
2019-03-31T10:51:33.853Z,16.35
2019-03-31T10:52:33.831Z,16.88
2019-03-31T10:53:33.808Z,17.19
2019-03-31T10:54:33.787Z,17.19
2019-03-31T10:55:33.764Z,17.86
2019-03-31T10:56:33.743Z,17.96
2019-03-31T10:57:33.719Z,18.11
2019-03-31T10:58:33.698Z,18.08
2019-03-31T10:59:33.676Z,18.94
2019-03-31T11:00:33.668Z,19.10
2019-03-31T11:01:33.632Z,18.63
2019-03-31T11:02:33.609Z,19.06
2019-03-31T11:03:33.593Z,19.19
2019-03-31T11:04:33.564Z,19.04
2019-03-31T11:05:33.542Z,17.70
2019-03-31T11:06:33.521Z,17.87
2019-03-31T11:07:33.499Z,17.70
2019-03-31T11:08:33.476Z,17.71
2019-03-31T11:09:34.494Z,18.11
2019-03-31T11:10:33.432Z,18.26
2019-03-31T11:11:33.410Z,18.52
2019-03-31T11:12:33.387Z,18.62
2019-03-31T11:13:33.369Z,18.70
2019-03-31T11:14:33.342Z,18.54
2019-03-31T11:15:33.320Z,18.80
2019-03-31T11:16:33.296Z,18.91
2019-03-31T11:17:33.275Z,18.60
2019-03-31T11:18:33.252Z,18.48
2019-03-31T11:19:33.231Z,18.51
2019-03-31T11:20:33.207Z,18.91
2019-03-31T11:21:33.192Z,19.07
2019-03-31T11:22:33.165Z,19.00
2019-03-31T11:23:33.142Z,19.23
2019-03-31T11:24:33.126Z,18.94
2019-03-31T11:25:33.095Z,18.32
2019-03-31T11:26:33.074Z,17.87
2019-03-31T11:27:33.052Z,16.79
2019-03-31T11:28:33.119Z,17.33
2019-03-31T11:29:33.007Z,17.40
2019-03-31T11:30:32.990Z,17.82
2019-03-31T11:31:32.963Z,18.37
2019-03-31T11:32:32.942Z,19.06
2019-03-31T11:33:32.917Z,19.39
2019-03-31T11:34:32.896Z,19.04
2019-03-31T11:35:32.873Z,19.00
2019-03-31T11:36:32.849Z,19.22
2019-03-31T11:37:32.826Z,19.81
2019-03-31T11:38:32.804Z,20.20
2019-03-31T11:39:32.784Z,20.14
2019-03-31T11:40:32.760Z,19.81
2019-03-31T11:41:32.737Z,19.80
2019-03-31T11:42:32.716Z,19.56
2019-03-31T11:43:32.693Z,19.16
2019-03-31T11:44:32.673Z,18.52
2019-03-31T11:45:32.651Z,18.70
2019-03-31T11:46:32.628Z,18.48
2019-03-31T11:47:32.606Z,18.23
2019-03-31T11:48:32.581Z,18.29
2019-03-31T11:49:32.560Z,18.90
2019-03-31T11:50:32.538Z,19.31
2019-03-31T11:51:32.514Z,19.23
2019-03-31T11:52:32.492Z,19.63
2019-03-31T11:53:32.471Z,19.58
2019-03-31T11:54:32.447Z,19.71
2019-03-31T11:55:32.429Z,19.96
2019-03-31T11:56:32.403Z,20.06
2019-03-31T11:57:32.384Z,20.23
2019-03-31T11:58:32.579Z,20.88
2019-03-31T11:59:32.337Z,20.77
2019-03-31T12:00:32.316Z,21.06
2019-03-31T12:01:32.293Z,21.04
2019-03-31T12:02:32.273Z,21.09
2019-03-31T12:03:32.251Z,20.94
2019-03-31T12:04:32.224Z,20.76
2019-03-31T12:05:32.202Z,20.80
2019-03-31T12:06:32.181Z,20.82
2019-03-31T12:07:45.688Z,20.77
2019-03-31T12:08:32.137Z,20.74
2019-03-31T12:09:32.114Z,20.47
2019-03-31T12:10:32.101Z,20.57
2019-03-31T12:11:32.070Z,20.11
2019-03-31T12:12:32.048Z,19.87
2019-03-31T12:13:32.034Z,19.94
2019-03-31T12:14:32.004Z,19.66
2019-03-31T12:15:31.982Z,19.74
2019-03-31T12:16:31.960Z,19.43
2019-03-31T12:17:31.938Z,19.46
2019-03-31T12:18:31.916Z,18.10
2019-03-31T12:19:31.895Z,18.35
2019-03-31T12:20:31.874Z,19.13
2019-03-31T12:21:31.848Z,19.81
2019-03-31T12:22:31.828Z,20.32
2019-03-31T12:23:31.807Z,20.79
2019-03-31T12:24:31.784Z,21.10
2019-03-31T12:25:31.762Z,21.10
2019-03-31T12:26:31.740Z,20.97
2019-03-31T12:27:31.718Z,20.91
2019-03-31T12:28:31.695Z,21.07
2019-03-31T12:29:31.674Z,21.52
2019-03-31T12:30:31.656Z,21.61
2019-03-31T12:31:31.630Z,20.08
2019-03-31T12:32:31.610Z,20.51
2019-03-31T12:33:31.587Z,19.69
2019-03-31T12:34:31.565Z,20.08
2019-03-31T12:35:31.555Z,19.92
2019-03-31T12:36:31.521Z,19.21
2019-03-31T12:37:42.247Z,19.19
2019-03-31T12:38:31.479Z,19.78
2019-03-31T12:39:31.457Z,20.43
2019-03-31T12:40:31.435Z,20.26
2019-03-31T12:41:31.412Z,20.32
2019-03-31T12:42:31.391Z,20.74
2019-03-31T12:43:31.369Z,20.91
2019-03-31T12:44:31.347Z,20.74
2019-03-31T12:45:31.325Z,20.35
2019-03-31T12:46:31.337Z,20.61
2019-03-31T12:47:31.281Z,20.35
2019-03-31T12:48:31.778Z,20.05
2019-03-31T12:49:31.235Z,20.16
2019-03-31T12:50:31.216Z,20.72
2019-03-31T12:51:31.197Z,20.51
2019-03-31T12:52:31.172Z,20.92
2019-03-31T12:53:31.150Z,21.28
2019-03-31T12:54:31.127Z,21.56
2019-03-31T12:55:31.108Z,21.35
2019-03-31T12:56:31.088Z,21.09
2019-03-31T12:57:31.062Z,21.04
2019-03-31T12:58:31.040Z,20.73
2019-03-31T12:59:31.019Z,20.58
2019-03-31T13:00:30.996Z,20.97
2019-03-31T13:01:30.975Z,20.66
2019-03-31T13:02:30.955Z,20.98
2019-03-31T13:03:30.935Z,21.16
2019-03-31T13:04:30.915Z,20.82
2019-03-31T13:05:30.890Z,20.82
2019-03-31T13:06:30.868Z,20.87
2019-03-31T13:07:30.847Z,20.82